Terminal Aerodrome Forecast
Issued by NWS Dodge City, KS

Home | Current Version | Previous Version | Text Only | Print | Product List | Glossary Off
Versions: 1 2 3 4 5 6 7 8 9 10 11 12 13 14 15 16 17 18 19 20 21 22 23 24 25 26 27 28 29 30 31 32 33 34 35 36 37 38 39 40 41 42 43 44 45 46

818
FTUS43 KDDC 201737
TAFDDC
TAF
KDDC 201737Z 2018/2118 21019G27KT P6SM SKC
     FM210100 20012KT P6SM SKC
     FM210800 19010KT P6SM SKC WS020/20040KT
     FM211200 19009KT P6SM SKC
     FM211500 20015G21KT P6SM SKC=

USA.gov is the U.S. government's official web portal to all federal, state and local government web resources and services.